Time;durP1;ratioP1;P1;durP2;ratioP2;P2;SDS_P1;SDS_P2;PMS_P1;PMS_P2;Temp;Humidity;BMP_temperature;BMP_pressure;BME280_temperature;BME280_humidity;BME280_pressure;Samples;Min_cycle;Max_cycle;Signal;HPM_P1;HPM_P2
2022/03/06 00:00:26;;;;;;;;;;;;;;;-0.02;74.11;102327.06;5039117;28;19923;-79
2022/03/06 00:02:51;;;;;;;;;;;;;;;-0.04;72.38;102338.69;5039431;28;20407;-79
2022/03/06 00:05:17;;;;;;;;;;;;;;;-0.03;74.30;102330.34;5043900;28;19956;-79
2022/03/06 00:07:42;;;;;;;;;;;;;;;0.05;73.56;102330.19;5042520;28;20386;-79
2022/03/06 00:10:07;;;;;;;;;;;;;;;0.06;72.11;102335.41;5045677;28;19931;-79
2022/03/06 00:12:33;;;;;;;;;;;;;;;-0.02;73.53;102332.13;5039365;28;19931;-79
2022/03/06 00:14:58;;;;;;;;;;;;;;;-0.06;75.13;102341.81;5059840;28;20006;-79
2022/03/06 00:17:23;;;;;;;;;;;;;;;-0.06;73.64;102339.28;5062832;28;20392;-80
2022/03/06 00:19:48;;;;;;;;;;;;;;;-0.13;74.08;102340.34;5048187;28;19925;-79
2022/03/06 00:22:14;;;;;;;;;;;;;;;-0.21;74.30;102338.75;5041495;28;19932;-79
2022/03/06 00:24:39;;;;;;;;;;;;;;;-0.22;73.14;102344.56;5055406;28;19925;-79
2022/03/06 00:27:04;;;;;;;;;;;;;;;-0.30;74.53;102351.41;5043253;28;19923;-79
2022/03/06 00:29:30;;;;;;;;;;;;;;;-0.34;73.36;102346.81;5025873;28;19932;-79
2022/03/06 00:31:55;;;;;;;;;;;;;;;-0.44;72.55;102355.88;5043987;28;19928;-79
2022/03/06 00:34:20;;;;;;;;;;;;;;;-0.52;75.28;102356.78;5038849;28;19948;-79
2022/03/06 00:36:46;;;;;;;;;;;;;;;-0.50;73.94;102352.78;5044098;28;19967;-79
2022/03/06 00:39:11;;;;;;;;;;;;;;;-0.57;72.36;102363.91;5042748;28;19952;-79
2022/03/06 00:41:36;;;;;;;;;;;;;;;-0.66;69.90;102368.09;5046528;28;19962;-79
2022/03/06 00:44:02;;;;;;;;;;;;;;;-0.73;71.39;102363.16;5048355;28;20025;-80
2022/03/06 00:46:27;;;;;;;;;;;;;;;-0.81;70.96;102372.53;5037414;28;19920;-79
2022/03/06 00:48:52;;;;;;;;;;;;;;;-0.89;71.21;102369.28;5040600;28;19974;-78
2022/03/06 00:51:17;;;;;;;;;;;;;;;-0.95;71.99;102381.31;5045347;28;20364;-78
2022/03/06 00:53:43;;;;;;;;;;;;;;;-1.00;71.12;102379.97;5045913;28;20510;-78
2022/03/06 00:56:08;;;;;;;;;;;;;;;-1.05;70.87;102370.16;5041136;28;19956;-79
2022/03/06 00:58:33;;;;;;;;;;;;;;;-1.10;72.50;102385.72;5055893;28;19920;-79
2022/03/06 01:00:59;;;;;;;;;;;;;;;-1.14;72.37;102381.13;5043247;28;20022;-77
2022/03/06 01:03:24;;;;;;;;;;;;;;;-1.17;71.67;102382.44;5038745;28;19943;-79
2022/03/06 01:05:49;;;;;;;;;;;;;;;-1.19;69.43;102376.38;5045526;28;20256;-79
2022/03/06 01:08:15;;;;;;;;;;;;;;;-1.23;74.89;102379.31;5044516;28;20378;-80
2022/03/06 01:10:41;;;;;;;;;;;;;;;-1.26;73.46;102381.53;5042312;28;19916;-79
2022/03/06 01:13:08;;;;;;;;;;;;;;;-1.30;73.88;102379.44;5046203;28;19924;-79
2022/03/06 01:15:33;;;;;;;;;;;;;;;-1.30;72.09;102387.91;5036887;28;19959;-79
2022/03/06 01:17:59;;;;;;;;;;;;;;;-1.34;74.94;102390.84;5039770;28;19968;-79
2022/03/06 01:20:24;;;;;;;;;;;;;;;-1.36;73.76;102382.25;5035939;28;19959;-79
2022/03/06 01:22:51;;;;;;;;;;;;;;;-1.39;73.08;102384.50;5042171;28;19917;-79
2022/03/06 01:25:16;;;;;;;;;;;;;;;-1.39;70.69;102382.84;5044607;28;19920;-79
2022/03/06 01:27:42;;;;;;;;;;;;;;;-1.41;74.56;102388.47;5044639;28;19929;-79
2022/03/06 01:30:09;;;;;;;;;;;;;;;-1.43;75.73;102384.91;5026891;28;20003;-79
2022/03/06 01:32:35;;;;;;;;;;;;;;;-1.45;75.25;102389.81;5041847;28;20417;-79
2022/03/06 01:35:00;;;;;;;;;;;;;;;-1.48;72.56;102394.53;5043499;28;19921;-79
2022/03/06 01:37:25;;;;;;;;;;;;;;;-1.46;73.30;102395.56;5043204;28;19972;-79
2022/03/06 01:39:51;;;;;;;;;;;;;;;-1.50;74.78;102398.53;5039780;28;19921;-79
2022/03/06 01:42:17;;;;;;;;;;;;;;;-1.50;78.56;102402.69;5044121;28;20562;-79
2022/03/06 01:44:52;;;;;;;;;;;;;;;-1.50;80.00;102398.53;5060979;28;19928;-79
2022/03/06 01:47:34;;;;;;;;;;;;;;;-1.47;79.61;102397.94;5040750;28;20341;-79
2022/03/06 01:49:59;;;;;;;;;;;;;;;-1.43;79.36;102405.09;5041437;28;19917;-79
2022/03/06 01:52:25;;;;;;;;;;;;;;;-1.42;77.99;102401.81;5043895;28;19925;-79
2022/03/06 01:54:50;;;;;;;;;;;;;;;-1.50;76.36;102398.53;5033627;28;20017;-79
2022/03/06 01:57:15;;;;;;;;;;;;;;;-1.55;74.39;102399.72;5042622;28;19930;-79
2022/03/06 01:59:40;;;;;;;;;;;;;;;-1.59;76.44;102396.72;5042987;28;19960;-79
2022/03/06 02:02:06;;;;;;;;;;;;;;;-1.63;73.61;102398.06;5035442;28;19921;-79
2022/03/06 02:04:31;;;;;;;;;;;;;;;-1.66;73.49;102397.72;5045703;28;19929;-79
2022/03/06 02:06:56;;;;;;;;;;;;;;;-1.69;75.66;102400.84;5043937;28;19931;-79
2022/03/06 02:09:22;;;;;;;;;;;;;;;-1.74;77.19;102399.47;5041843;28;19925;-79
2022/03/06 02:12:18;;;;;;;;;;;;;;;-1.77;77.69;102406.72;5042057;28;19978;-79
2022/03/06 02:14:32;;;;;;;;;;;;;;;-1.79;74.83;102399.75;5042531;28;20073;-79
2022/03/06 02:16:57;;;;;;;;;;;;;;;-1.82;77.15;102401.94;5041537;28;20407;-79
2022/03/06 02:19:22;;;;;;;;;;;;;;;-1.84;78.28;102408.47;5042649;28;19920;-79
2022/03/06 02:21:48;;;;;;;;;;;;;;;-1.87;74.94;102411.59;5044774;28;19940;-79
2022/03/06 02:24:13;;;;;;;;;;;;;;;-1.89;73.80;102408.00;5045574;28;19917;-79
2022/03/06 02:26:39;;;;;;;;;;;;;;;-1.93;79.14;102410.94;5045002;28;20015;-79
2022/03/06 02:29:04;;;;;;;;;;;;;;;-1.95;78.51;102407.38;5035803;28;19929;-80
2022/03/06 02:31:29;;;;;;;;;;;;;;;-1.98;78.74;102410.47;5027267;28;20276;-79
2022/03/06 02:33:54;;;;;;;;;;;;;;;-2.02;76.23;102415.03;5044418;28;20055;-79
2022/03/06 02:36:20;;;;;;;;;;;;;;;-2.05;78.26;102413.09;5044680;28;19975;-79
2022/03/06 02:38:45;;;;;;;;;;;;;;;-2.04;78.44;102408.94;5044238;28;19974;-79
2022/03/06 02:41:10;;;;;;;;;;;;;;;-2.07;81.10;102419.59;5064046;28;20005;-79
2022/03/06 02:43:36;;;;;;;;;;;;;;;-2.05;76.76;102428.22;5062670;28;19916;-80
2022/03/06 02:46:02;;;;;;;;;;;;;;;-2.06;76.46;102417.97;5043107;28;19920;-79
2022/03/06 02:48:27;;;;;;;;;;;;;;;-2.09;81.40;102417.66;5059392;28;19921;-79
2022/03/06 02:50:53;;;;;;;;;;;;;;;-2.07;76.04;102418.72;5039598;28;20016;-80
2022/03/06 02:53:19;;;;;;;;;;;;;;;-2.11;77.32;102417.50;5050522;28;19925;-79
2022/03/06 02:55:44;;;;;;;;;;;;;;;-2.16;79.32;102417.03;5047102;28;19956;-79
2022/03/06 02:58:10;;;;;;;;;;;;;;;-2.15;80.82;102425.47;5043643;28;19976;-79
2022/03/06 03:00:35;;;;;;;;;;;;;;;-2.19;76.94;102418.31;5052876;28;19921;-80
2022/03/06 03:03:00;;;;;;;;;;;;;;;-2.22;79.04;102421.44;5037511;28;19929;-79
2022/03/06 03:05:26;;;;;;;;;;;;;;;-2.24;78.71;102427.06;5040503;28;20466;-80
2022/03/06 03:07:51;;;;;;;;;;;;;;;-2.26;77.95;102421.84;5047529;28;19925;-79
2022/03/06 03:10:19;;;;;;;;;;;;;;;-2.30;80.46;102427.31;5047079;28;19929;-79
2022/03/06 03:12:44;;;;;;;;;;;;;;;-2.30;78.22;102434.88;5048791;28;19917;-79
2022/03/06 03:15:10;;;;;;;;;;;;;;;-2.36;78.60;102434.25;5041864;28;19921;-79
2022/03/06 03:17:35;;;;;;;;;;;;;;;-2.37;78.02;102434.94;5043711;28;19941;-79
2022/03/06 03:20:01;;;;;;;;;;;;;;;-2.41;80.24;102424.41;5047098;28;19921;-79
2022/03/06 03:22:26;;;;;;;;;;;;;;;-2.42;79.05;102428.56;5044718;28;19962;-79
2022/03/06 03:24:51;;;;;;;;;;;;;;;-2.47;82.24;102420.50;5047406;28;19928;-79
2022/03/06 03:27:17;;;;;;;;;;;;;;;-2.49;78.94;102421.06;5046409;28;19924;-79
2022/03/06 03:29:42;;;;;;;;;;;;;;;-2.49;79.12;102426.09;5046672;28;19928;-79
2022/03/06 03:32:07;;;;;;;;;;;;;;;-2.54;79.49;102419.72;5048289;28;20002;-79
2022/03/06 03:34:33;;;;;;;;;;;;;;;-2.58;78.49;102425.16;5047217;28;19924;-79
2022/03/06 03:36:58;;;;;;;;;;;;;;;-2.60;78.97;102421.59;5036441;28;19921;-79
2022/03/06 03:39:24;;;;;;;;;;;;;;;-2.59;76.77;102423.38;5044164;28;20384;-79
2022/03/06 03:41:49;;;;;;;;;;;;;;;-2.62;80.14;102425.56;5041068;28;19936;-79
2022/03/06 03:44:14;;;;;;;;;;;;;;;-2.64;77.69;102429.53;5044346;28;19928;-79
2022/03/06 03:46:39;;;;;;;;;;;;;;;-2.65;80.07;102437.84;5046057;28;19925;-79
2022/03/06 03:49:05;;;;;;;;;;;;;;;-2.69;80.64;102444.16;5044210;28;19917;-79
2022/03/06 03:51:30;;;;;;;;;;;;;;;-2.71;80.80;102436.44;5046654;28;19974;-79
2022/03/06 03:53:55;;;;;;;;;;;;;;;-2.73;78.47;102440.44;5045516;28;19924;-79
2022/03/06 03:56:21;;;;;;;;;;;;;;;-2.76;78.91;102440.09;5044920;28;20055;-79
2022/03/06 03:58:46;;;;;;;;;;;;;;;-2.78;79.23;102435.66;5045306;28;19924;-79
2022/03/06 04:01:11;;;;;;;;;;;;;;;-2.82;79.22;102433.53;5038833;28;19931;-79
2022/03/06 04:03:37;;;;;;;;;;;;;;;-2.86;80.97;102442.38;5041183;28;20344;-79
2022/03/06 04:06:02;;;;;;;;;;;;;;;-2.84;79.44;102445.97;5047635;28;20077;-79
2022/03/06 04:08:27;;;;;;;;;;;;;;;-2.90;79.54;102450.34;5047234;28;19936;-79
2022/03/06 04:10:56;;;;;;;;;;;;;;;-2.91;81.07;102453.59;5041425;28;19916;-79
2022/03/06 04:13:21;;;;;;;;;;;;;;;-2.93;81.80;102456.66;5044987;28;19932;-79
2022/03/06 04:15:47;;;;;;;;;;;;;;;-2.95;81.81;102460.66;5043671;28;19925;-79
2022/03/06 04:18:12;;;;;;;;;;;;;;;-2.96;81.33;102457.22;5043415;28;19936;-79
2022/03/06 04:20:37;;;;;;;;;;;;;;;-2.96;84.96;102459.75;5043878;28;19921;-79
2022/03/06 04:23:03;;;;;;;;;;;;;;;-2.97;83.07;102455.44;5041448;28;19974;-78
2022/03/06 04:25:28;;;;;;;;;;;;;;;-2.99;87.11;102455.25;5043942;28;19928;-79
2022/03/06 04:27:53;;;;;;;;;;;;;;;-2.97;86.85;102468.03;5059074;28;19936;-79
2022/03/06 04:30:19;;;;;;;;;;;;;;;-2.97;85.07;102468.03;5039463;28;20016;-81
2022/03/06 04:32:44;;;;;;;;;;;;;;;-3.00;89.21;102471.09;5044536;28;19916;-79
2022/03/06 04:35:09;;;;;;;;;;;;;;;-2.93;88.19;102480.19;5042588;28;19936;-79
2022/03/06 04:37:35;;;;;;;;;;;;;;;-2.94;84.44;102480.03;5043583;28;20649;-79
2022/03/06 04:40:00;;;;;;;;;;;;;;;-2.99;85.24;102472.88;5045715;28;19982;-79
2022/03/06 04:42:25;;;;;;;;;;;;;;;-3.03;84.61;102483.38;5046697;28;19928;-79
2022/03/06 04:44:51;;;;;;;;;;;;;;;-3.05;82.60;102481.41;5036723;28;19931;-79
2022/03/06 04:47:16;;;;;;;;;;;;;;;-3.04;80.21;102484.06;5043958;28;19920;-79
2022/03/06 04:49:41;;;;;;;;;;;;;;;-3.06;84.83;102492.19;5043938;28;19929;-79
2022/03/06 04:52:07;;;;;;;;;;;;;;;-3.07;84.31;102491.31;5042446;28;19928;-79
2022/03/06 04:54:32;;;;;;;;;;;;;;;-3.04;82.67;102495.75;5039257;28;19937;-79
2022/03/06 04:56:57;;;;;;;;;;;;;;;-2.99;84.20;102502.19;5045175;28;19948;-80
2022/03/06 04:59:23;;;;;;;;;;;;;;;-2.97;83.21;102505.78;5041841;28;19986;-79
2022/03/06 05:01:48;;;;;;;;;;;;;;;-2.98;81.07;102512.41;5047027;28;19967;-79
2022/03/06 05:04:13;;;;;;;;;;;;;;;-3.00;83.95;102505.44;5058649;28;19970;-79
2022/03/06 05:06:38;;;;;;;;;;;;;;;-3.02;80.19;102509.44;5052704;28;19932;-79
2022/03/06 05:09:03;;;;;;;;;;;;;;;-3.02;82.59;102511.94;5047858;28;19925;-79
2022/03/06 05:11:29;;;;;;;;;;;;;;;-3.03;83.16;102520.22;5044066;28;19928;-78
2022/03/06 05:13:54;;;;;;;;;;;;;;;-3.03;81.72;102517.72;5044274;28;19929;-79
2022/03/06 05:16:20;;;;;;;;;;;;;;;-3.05;81.87;102517.53;5045678;28;19938;-79
2022/03/06 05:18:45;;;;;;;;;;;;;;;-3.04;83.65;102523.44;5039258;28;19970;-79
2022/03/06 05:21:11;;;;;;;;;;;;;;;-3.06;83.49;102518.25;5043539;28;19939;-79
2022/03/06 05:23:36;;;;;;;;;;;;;;;-3.06;83.75;102520.78;5047122;28;19921;-80
2022/03/06 05:26:01;;;;;;;;;;;;;;;-3.10;80.87;102518.63;5043417;28;20402;-79
2022/03/06 05:28:27;;;;;;;;;;;;;;;-3.10;84.98;102517.75;5045057;28;19921;-79
2022/03/06 05:30:52;;;;;;;;;;;;;;;-3.10;82.60;102517.75;5040997;28;20302;-79
2022/03/06 05:33:17;;;;;;;;;;;;;;;-3.10;80.33;102530.31;5041076;28;20046;-79
2022/03/06 05:35:43;;;;;;;;;;;;;;;-3.16;83.16;102520.47;5044931;28;20421;-80
2022/03/06 05:38:08;;;;;;;;;;;;;;;-3.20;81.93;102533.47;5024460;28;19928;-80
2022/03/06 05:40:33;;;;;;;;;;;;;;;-3.25;83.84;102532.97;5059024;28;20474;-80
2022/03/06 05:42:59;;;;;;;;;;;;;;;-3.28;84.35;102537.66;5026366;28;19925;-80
2022/03/06 05:45:24;;;;;;;;;;;;;;;-3.27;81.76;102539.47;5040357;28;19928;-80
2022/03/06 05:47:49;;;;;;;;;;;;;;;-3.25;81.31;102544.66;5038410;28;19932;-80
2022/03/06 05:50:14;;;;;;;;;;;;;;;-3.24;81.36;102544.81;5046609;28;19928;-80
2022/03/06 05:52:40;;;;;;;;;;;;;;;-3.25;81.88;102547.16;5036976;28;20323;-80
2022/03/06 05:55:06;;;;;;;;;;;;;;;-3.22;82.31;102544.09;5044805;28;19931;-80
2022/03/06 05:57:31;;;;;;;;;;;;;;;-3.27;83.15;102541.09;5057458;28;19925;-80
2022/03/06 05:59:56;;;;;;;;;;;;;;;-3.28;82.21;102545.19;5043625;28;19924;-80
2022/03/06 06:02:23;;;;;;;;;;;;;;;-3.26;80.33;102545.38;5059172;28;19951;-80
2022/03/06 06:04:49;;;;;;;;;;;;;;;-3.29;81.74;102543.41;5044908;28;19916;-80
2022/03/06 06:07:14;;;;;;;;;;;;;;;-3.28;81.39;102549.34;5042464;28;19921;-80
2022/03/06 06:09:39;;;;;;;;;;;;;;;-3.24;82.07;102559.03;5045649;28;19925;-80
2022/03/06 06:12:05;;;;;;;;;;;;;;;-3.29;82.68;102558.50;5042865;28;19920;-80
2022/03/06 06:14:31;;;;;;;;;;;;;;;-3.28;81.49;102554.38;5041893;28;19933;-79
2022/03/06 06:16:56;;;;;;;;;;;;;;;-3.30;84.02;102561.75;5043952;28;19925;-79
2022/03/06 06:19:21;;;;;;;;;;;;;;;-3.32;85.22;102568.25;5041020;28;19925;-79
2022/03/06 06:21:46;;;;;;;;;;;;;;;-3.32;85.67;102567.34;5040058;28;19929;-79
2022/03/06 06:24:13;;;;;;;;;;;;;;;-3.33;81.91;102571.50;5044183;28;19924;-79
2022/03/06 06:26:38;;;;;;;;;;;;;;;-3.31;84.95;102570.03;5038544;28;20008;-79
2022/03/06 06:29:03;;;;;;;;;;;;;;;-3.32;83.39;102563.22;5047200;28;20470;-80
2022/03/06 06:31:29;;;;;;;;;;;;;;;-3.27;83.39;102569.66;5048049;28;19921;-80
2022/03/06 06:33:55;;;;;;;;;;;;;;;-3.25;85.17;102567.28;5046031;28;19936;-80
2022/03/06 06:36:20;;;;;;;;;;;;;;;-3.22;83.41;102569.25;5045257;28;19917;-79
2022/03/06 06:38:46;;;;;;;;;;;;;;;-3.19;81.93;102580.56;5043977;28;19921;-79
2022/03/06 06:41:11;;;;;;;;;;;;;;;-3.16;81.06;102585.91;5062557;28;19935;-79
2022/03/06 06:43:36;;;;;;;;;;;;;;;-3.10;82.77;102586.56;5043478;28;19960;-80
2022/03/06 06:46:01;;;;;;;;;;;;;;;-2.76;82.81;102585.25;5040549;28;19931;-78
2022/03/06 06:48:27;;;;;;;;;;;;;;;-2.28;82.51;102592.13;5031321;28;19956;-79
2022/03/06 06:50:52;;;;;;;;;;;;;;;-1.76;85.30;102595.13;5064137;28;19927;-79
2022/03/06 06:53:17;;;;;;;;;;;;;;;-1.09;84.08;102586.06;5041415;28;20011;-79
2022/03/06 06:55:42;;;;;;;;;;;;;;;-0.40;80.11;102598.94;5047301;28;19925;-79
2022/03/06 06:58:08;;;;;;;;;;;;;;;0.16;78.72;102598.56;5048924;28;19917;-79
2022/03/06 07:00:34;;;;;;;;;;;;;;;0.68;76.13;102601.06;5055872;28;19947;-79
2022/03/06 07:02:59;;;;;;;;;;;;;;;1.12;75.21;102595.88;5044301;28;19917;-79
2022/03/06 07:05:25;;;;;;;;;;;;;;;1.63;73.55;102601.44;5048494;28;19935;-79
2022/03/06 07:07:53;;;;;;;;;;;;;;;2.06;72.88;102602.06;5048617;28;20012;-81
2022/03/06 07:10:19;;;;;;;;;;;;;;;2.46;70.19;102604.69;5047598;28;19917;-79
2022/03/06 07:12:45;;;;;;;;;;;;;;;2.74;70.10;102608.91;5047700;28;20428;-79
2022/03/06 07:15:11;;;;;;;;;;;;;;;3.05;69.39;102604.81;5045080;28;19920;-79
2022/03/06 07:17:36;;;;;;;;;;;;;;;3.44;68.23;102598.78;5046119;28;20031;-79
2022/03/06 07:20:02;;;;;;;;;;;;;;;3.95;66.38;102604.81;5049033;28;20021;-79
2022/03/06 07:22:27;;;;;;;;;;;;;;;4.26;65.68;102600.56;5048098;28;20296;-79
2022/03/06 07:24:52;;;;;;;;;;;;;;;4.60;64.52;102600.69;5045942;28;19925;-79
2022/03/06 07:27:18;;;;;;;;;;;;;;;5.07;64.61;102607.00;5060871;28;19925;-79
2022/03/06 07:29:43;;;;;;;;;;;;;;;5.44;64.86;102614.06;5054362;28;20044;-79
2022/03/06 07:32:08;;;;;;;;;;;;;;;5.76;59.67;102607.16;5054333;28;20405;-80
2022/03/06 07:34:33;;;;;;;;;;;;;;;6.22;59.81;102620.84;5041218;28;19929;-79
2022/03/06 07:36:59;;;;;;;;;;;;;;;6.98;57.22;102626.38;5045244;28;20007;-79
2022/03/06 07:39:24;;;;;;;;;;;;;;;7.48;55.89;102621.31;5048420;28;20314;-80
2022/03/06 07:41:49;;;;;;;;;;;;;;;7.96;57.62;102621.97;5045390;28;19931;-79
2022/03/06 07:44:14;;;;;;;;;;;;;;;8.25;55.58;102629.91;5041749;28;19935;-80
2022/03/06 07:46:41;;;;;;;;;;;;;;;8.45;53.53;102623.56;5028249;28;19924;-80
2022/03/06 07:49:06;;;;;;;;;;;;;;;8.85;54.18;102620.94;5046454;28;20310;-79
2022/03/06 07:51:32;;;;;;;;;;;;;;;9.46;54.84;102632.44;5029399;28;19967;-80
2022/03/06 07:53:57;;;;;;;;;;;;;;;9.87;47.71;102631.47;5043422;28;19925;-80
2022/03/06 07:56:22;;;;;;;;;;;;;;;10.44;53.38;102639.13;5045794;28;19928;-80
2022/03/06 07:58:47;;;;;;;;;;;;;;;10.93;50.27;102640.97;5044145;28;19961;-80
2022/03/06 08:01:12;;;;;;;;;;;;;;;11.54;41.41;102641.69;5041321;28;19929;-79
2022/03/06 08:03:38;;;;;;;;;;;;;;;12.01;42.66;102636.44;5040358;28;20371;-79
2022/03/06 08:06:03;;;;;;;;;;;;;;;12.27;41.61;102642.00;5042207;28;19928;-80
2022/03/06 08:08:28;;;;;;;;;;;;;;;12.41;46.77;102645.25;5039671;28;20241;-80
2022/03/06 08:10:53;;;;;;;;;;;;;;;12.61;42.10;102639.34;5039709;28;20000;-80
2022/03/06 08:13:19;;;;;;;;;;;;;;;12.73;40.87;102647.69;5042719;28;19944;-79
2022/03/06 08:15:44;;;;;;;;;;;;;;;12.66;44.40;102655.06;5059662;28;19925;-80
2022/03/06 08:18:09;;;;;;;;;;;;;;;12.67;39.77;102660.28;5041062;28;20614;-80
2022/03/06 08:20:35;;;;;;;;;;;;;;;12.99;38.63;102654.09;5061140;28;20063;-80
2022/03/06 08:23:01;;;;;;;;;;;;;;;13.22;39.63;102662.91;5045111;28;20568;-80
2022/03/06 08:25:26;;;;;;;;;;;;;;;13.60;40.85;102663.78;5044751;28;20465;-80
2022/03/06 08:27:51;;;;;;;;;;;;;;;13.81;39.07;102656.94;5044940;28;19935;-80
2022/03/06 08:30:17;;;;;;;;;;;;;;;13.66;37.61;102657.16;5027381;28;20497;-80
2022/03/06 08:32:42;;;;;;;;;;;;;;;13.50;35.02;102667.63;5038974;28;20576;-80
2022/03/06 08:35:08;;;;;;;;;;;;;;;13.33;38.70;102666.00;5045083;28;19944;-80
2022/03/06 08:37:33;;;;;;;;;;;;;;;13.39;36.13;102667.16;5046652;28;19920;-79
2022/03/06 08:39:59;;;;;;;;;;;;;;;13.74;35.51;102664.38;5046747;28;19934;-80
2022/03/06 08:42:24;;;;;;;;;;;;;;;14.31;36.56;102668.53;5034906;28;19936;-80
2022/03/06 08:44:49;;;;;;;;;;;;;;;15.29;36.84;102669.88;5058807;28;20388;-79
2022/03/06 08:47:14;;;;;;;;;;;;;;;15.70;36.89;102675.69;5040502;28;19921;-80
2022/03/06 08:49:40;;;;;;;;;;;;;;;15.86;31.58;102670.25;5043947;28;19920;-79
2022/03/06 08:52:05;;;;;;;;;;;;;;;15.48;33.31;102671.44;5060803;28;19920;-79
2022/03/06 08:54:30;;;;;;;;;;;;;;;15.61;35.73;102680.53;5036320;28;19940;-79
2022/03/06 08:56:56;;;;;;;;;;;;;;;15.98;34.43;102670.66;5043289;28;19950;-80
2022/03/06 08:59:21;;;;;;;;;;;;;;;16.19;35.40;102667.03;5041793;28;19925;-80
2022/03/06 09:01:47;;;;;;;;;;;;;;;16.91;34.49;102672.84;5061466;28;19921;-79
2022/03/06 09:04:13;;;;;;;;;;;;;;;17.03;32.06;102670.63;5040648;28;19929;-79
2022/03/06 09:06:39;;;;;;;;;;;;;;;16.51;31.81;102674.19;5041227;28;19921;-79
2022/03/06 09:09:04;;;;;;;;;;;;;;;16.43;31.50;102678.22;5059240;28;20454;-81
2022/03/06 09:11:29;;;;;;;;;;;;;;;16.20;34.06;102679.16;5037311;28;19921;-79
2022/03/06 09:13:54;;;;;;;;;;;;;;;15.85;30.12;102683.16;5046598;28;20058;-80
2022/03/06 09:16:20;;;;;;;;;;;;;;;14.22;34.08;102687.16;5036788;28;20478;-78
2022/03/06 09:18:47;;;;;;;;;;;;;;;14.87;35.02;102685.53;5044521;28;20007;-79
2022/03/06 09:21:12;;;;;;;;;;;;;;;16.02;31.14;102677.75;5060648;28;19928;-80
2022/03/06 09:23:38;;;;;;;;;;;;;;;16.48;31.26;102670.59;5044660;28;19928;-80
2022/03/06 09:26:03;;;;;;;;;;;;;;;16.77;32.45;102667.25;5045136;28;19921;-79
2022/03/06 09:28:28;;;;;;;;;;;;;;;17.15;28.96;102678.78;5043510;28;20051;-79
2022/03/06 09:30:53;;;;;;;;;;;;;;;16.90;30.76;102676.28;5038741;28;19925;-79
2022/03/06 09:33:19;;;;;;;;;;;;;;;17.65;28.39;102670.69;5043576;28;19950;-79
2022/03/06 09:35:44;;;;;;;;;;;;;;;18.06;29.03;102671.84;5024167;28;20268;-78
2022/03/06 09:38:09;;;;;;;;;;;;;;;17.42;29.24;102676.13;5043254;28;19920;-78
2022/03/06 09:40:36;;;;;;;;;;;;;;;18.04;29.28;102676.13;5040721;28;19929;-78
2022/03/06 09:43:01;;;;;;;;;;;;;;;18.84;28.26;102678.97;5041627;28;19920;-78
2022/03/06 09:45:28;;;;;;;;;;;;;;;19.19;28.39;102671.94;5040498;28;20306;-78
2022/03/06 09:47:58;;;;;;;;;;;;;;;19.35;27.02;102677.47;5042812;28;19921;-78
2022/03/06 09:50:23;;;;;;;;;;;;;;;19.06;29.86;102669.91;5035570;28;19955;-78
2022/03/06 09:52:48;;;;;;;;;;;;;;;19.11;27.10;102668.31;5049165;28;19929;-78
2022/03/06 09:55:14;;;;;;;;;;;;;;;19.10;28.06;102676.94;5060732;28;19955;-78
2022/03/06 09:57:39;;;;;;;;;;;;;;;18.79;28.87;102669.28;5049105;28;19925;-78
2022/03/06 10:00:05;;;;;;;;;;;;;;;18.73;27.83;102673.50;5028615;28;19988;-78
2022/03/06 10:02:31;;;;;;;;;;;;;;;19.10;28.94;102673.47;5048133;28;20383;-78
2022/03/06 10:04:56;;;;;;;;;;;;;;;19.54;27.85;102667.44;5033613;28;19929;-78
2022/03/06 10:07:22;;;;;;;;;;;;;;;20.23;27.81;102657.41;5050464;28;19923;-77
2022/03/06 10:09:48;;;;;;;;;;;;;;;20.17;24.31;102663.41;5051628;28;19921;-78
2022/03/06 10:12:32;;;;;;;;;;;;;;;19.74;28.04;102660.03;5047356;28;19956;-78
2022/03/06 10:15:03;;;;;;;;;;;;;;;19.64;28.45;102667.66;5044444;28;20333;-78
2022/03/06 10:17:29;;;;;;;;;;;;;;;18.99;26.83;102678.47;5050402;28;19924;-78
2022/03/06 10:19:58;;;;;;;;;;;;;;;18.39;28.37;102657.91;5051013;28;19924;-77
2022/03/06 10:22:26;;;;;;;;;;;;;;;17.73;28.70;102671.81;5067413;28;20032;-77
2022/03/06 10:24:52;;;;;;;;;;;;;;;18.01;27.65;102668.22;5041443;28;19916;-77
2022/03/06 10:27:37;;;;;;;;;;;;;;;18.61;27.21;102667.97;5047548;28;20486;-77
2022/03/06 10:30:20;;;;;;;;;;;;;;;18.90;28.08;102678.25;5049149;28;20338;-78
2022/03/06 10:32:46;;;;;;;;;;;;;;;18.45;28.17;102677.19;5046433;28;19971;-76
2022/03/06 10:35:11;;;;;;;;;;;;;;;18.23;26.49;102680.06;5047987;28;19925;-78
2022/03/06 10:37:36;;;;;;;;;;;;;;;18.33;26.65;102683.81;5027320;28;19941;-78
2022/03/06 10:40:02;;;;;;;;;;;;;;;18.33;27.22;102678.59;5047097;28;19969;-78
2022/03/06 10:42:27;;;;;;;;;;;;;;;18.20;25.16;102678.28;5050432;28;20338;-78
2022/03/06 10:44:53;;;;;;;;;;;;;;;17.89;26.74;102673.97;5044017;28;20012;-80
2022/03/06 10:47:18;;;;;;;;;;;;;;;18.90;27.17;102673.03;5047424;28;19928;-80
2022/03/06 10:49:57;;;;;;;;;;;;;;;19.63;25.40;102660.66;5049510;28;20019;-79
2022/03/06 10:52:23;;;;;;;;;;;;;;;19.87;26.39;102665.47;5048964;28;20007;-79
2022/03/06 10:54:53;;;;;;;;;;;;;;;20.24;22.98;102667.88;5066766;28;20000;-79
2022/03/06 10:57:19;;;;;;;;;;;;;;;19.57;24.65;102658.78;5042831;28;19940;-79
2022/03/06 10:59:45;;;;;;;;;;;;;;;19.63;25.46;102658.06;5048062;28;19929;-79
2022/03/06 11:02:11;;;;;;;;;;;;;;;19.83;23.83;102664.53;5051032;28;19962;-79
2022/03/06 11:04:37;;;;;;;;;;;;;;;19.77;22.59;102678.34;5060512;28;19920;-79
2022/03/06 11:07:02;;;;;;;;;;;;;;;17.99;24.35;102669.91;5051975;28;20414;-79
2022/03/06 11:09:28;;;;;;;;;;;;;;;16.65;26.79;102666.81;5047487;28;20011;-79
2022/03/06 11:11:53;;;;;;;;;;;;;;;16.53;27.68;102676.81;5045566;28;20409;-79
2022/03/06 11:14:19;;;;;;;;;;;;;;;17.73;25.52;102670.94;5044203;28;19979;-79
2022/03/06 11:16:44;;;;;;;;;;;;;;;17.26;26.81;102665.25;5044080;28;19952;-80
2022/03/06 11:19:10;;;;;;;;;;;;;;;17.78;26.37;102665.03;5043429;28;19931;-80
2022/03/06 11:21:38;;;;;;;;;;;;;;;18.43;27.00;102654.53;5048505;28;20369;-79
2022/03/06 11:24:09;;;;;;;;;;;;;;;19.10;24.38;102663.03;5049168;28;19916;-79
2022/03/06 11:26:54;;;;;;;;;;;;;;;17.81;24.09;102665.09;5061068;28;19979;-80
2022/03/06 11:29:39;;;;;;;;;;;;;;;16.13;25.65;102659.91;5045000;28;20398;-79
2022/03/06 11:32:06;;;;;;;;;;;;;;;15.52;28.16;102663.81;5040276;28;19933;-79
2022/03/06 11:34:32;;;;;;;;;;;;;;;15.29;26.96;102675.06;5043687;28;20019;-79
2022/03/06 11:37:02;;;;;;;;;;;;;;;14.54;28.35;102672.09;5044525;28;19916;-79
2022/03/06 11:39:30;;;;;;;;;;;;;;;14.92;29.50;102675.34;5047059;28;20416;-79
2022/03/06 11:42:00;;;;;;;;;;;;;;;16.84;25.79;102668.31;5045705;28;19923;-79
2022/03/06 11:44:35;;;;;;;;;;;;;;;17.44;24.13;102663.19;5044493;28;20007;-79
2022/03/06 11:47:10;;;;;;;;;;;;;;;16.67;24.53;102662.56;5043190;28;20022;-79
2022/03/06 11:49:36;;;;;;;;;;;;;;;16.03;26.17;102663.06;5046134;28;19962;-79
2022/03/06 11:52:01;;;;;;;;;;;;;;;15.39;26.89;102665.91;5045706;28;19932;-79
2022/03/06 11:54:40;;;;;;;;;;;;;;;15.54;27.14;102662.16;5043595;28;19995;-79
2022/03/06 11:57:06;;;;;;;;;;;;;;;16.67;26.74;102659.94;5046202;28;19916;-81
2022/03/06 11:59:32;;;;;;;;;;;;;;;17.41;24.79;102652.66;5037425;28;19923;-80
2022/03/06 12:02:05;;;;;;;;;;;;;;;16.87;25.13;102653.72;5046428;28;19967;-79
2022/03/06 12:04:32;;;;;;;;;;;;;;;17.58;24.73;102646.22;5046923;28;19920;-79
2022/03/06 12:06:59;;;;;;;;;;;;;;;17.97;24.91;102652.50;5044833;28;19924;-79
2022/03/06 12:09:25;;;;;;;;;;;;;;;18.18;23.37;102646.09;5041130;28;19925;-79
2022/03/06 12:11:52;;;;;;;;;;;;;;;17.56;24.12;102647.91;5045190;28;19947;-78
2022/03/06 12:14:21;;;;;;;;;;;;;;;15.73;25.38;102642.13;5046712;28;19932;-79
2022/03/06 12:17:10;;;;;;;;;;;;;;;14.40;27.11;102650.81;5043264;28;19921;-79
2022/03/06 12:19:45;;;;;;;;;;;;;;;13.57;29.17;102648.13;5043386;28;20353;-80
2022/03/06 12:22:33;;;;;;;;;;;;;;;15.28;27.72;102636.97;5044835;28;19929;-79
2022/03/06 12:25:11;;;;;;;;;;;;;;;15.50;27.11;102644.72;5044468;28;19923;-78
2022/03/06 12:27:37;;;;;;;;;;;;;;;14.00;28.96;102639.63;5051907;28;19952;-78
2022/03/06 12:30:04;;;;;;;;;;;;;;;13.47;29.45;102646.84;5047985;28;19935;-78
2022/03/06 12:32:29;;;;;;;;;;;;;;;13.00;29.94;102644.63;5047339;28;19962;-78